createdAt,value
2017-10-20T00:00:16.477Z,12.00
2017-10-20T00:05:19.702Z,12.20
2017-10-20T00:10:23.672Z,12.10
2017-10-20T00:15:26.895Z,12.10
2017-10-20T00:20:30.094Z,12.10
2017-10-20T00:25:33.278Z,12.20
2017-10-20T00:30:36.500Z,12.30
2017-10-20T00:35:39.695Z,12.40
2017-10-20T00:40:42.934Z,12.40
2017-10-20T00:45:46.125Z,12.40
2017-10-20T00:50:49.333Z,12.40
2017-10-20T00:55:52.523Z,12.30
2017-10-20T01:00:55.720Z,12.30
2017-10-20T01:05:58.878Z,12.30
2017-10-20T01:11:02.072Z,12.30
2017-10-20T01:16:05.385Z,12.30
2017-10-20T01:21:08.696Z,12.20
2017-10-20T01:26:11.893Z,12.20
2017-10-20T01:31:15.098Z,12.20
2017-10-20T01:36:18.317Z,12.10
2017-10-20T01:41:21.489Z,12.00
2017-10-20T01:46:24.729Z,12.10
2017-10-20T01:51:27.905Z,12.20
2017-10-20T01:56:31.083Z,12.30
2017-10-20T02:01:35.033Z,12.40
2017-10-20T02:06:38.218Z,12.40
2017-10-20T02:11:41.399Z,12.50
2017-10-20T02:16:44.600Z,12.50
2017-10-20T02:21:47.777Z,12.50
2017-10-20T02:26:50.961Z,12.50
2017-10-20T02:31:54.186Z,12.50
2017-10-20T02:36:57.402Z,12.40
2017-10-20T02:42:00.558Z,12.20
2017-10-20T02:47:04.490Z,12.10
2017-10-20T02:52:07.662Z,12.10
2017-10-20T02:57:10.858Z,12.10
2017-10-20T03:02:14.045Z,12.10
2017-10-20T03:07:17.280Z,12.20
2017-10-20T03:12:20.474Z,12.20
2017-10-20T03:17:23.681Z,12.30
2017-10-20T03:22:27.046Z,12.10
2017-10-20T03:27:30.234Z,12.10
2017-10-20T03:32:34.194Z,12.00
2017-10-20T03:37:37.378Z,12.00
2017-10-20T03:42:40.560Z,12.10
2017-10-20T03:47:44.519Z,12.10
2017-10-20T03:52:47.724Z,12.10
2017-10-20T03:57:50.892Z,12.20
2017-10-20T04:02:54.878Z,12.20
2017-10-20T04:07:58.042Z,12.20
2017-10-20T04:13:02.001Z,12.00
2017-10-20T04:18:05.185Z,12.00
2017-10-20T04:23:08.394Z,12.10
2017-10-20T04:28:11.635Z,12.10
2017-10-20T04:33:14.808Z,12.20
2017-10-20T04:38:18.013Z,12.10
2017-10-20T04:43:21.177Z,12.20
2017-10-20T04:48:24.420Z,12.20
2017-10-20T04:53:27.591Z,12.30
2017-10-20T04:58:30.770Z,12.40
2017-10-20T05:03:33.949Z,12.40
2017-10-20T05:08:37.132Z,12.30
2017-10-20T05:13:41.092Z,12.10
2017-10-20T05:18:44.269Z,12.20
2017-10-20T05:23:47.436Z,12.10
2017-10-20T05:28:50.651Z,12.00
2017-10-20T05:33:53.844Z,12.00
2017-10-20T05:38:57.005Z,12.10
2017-10-20T05:44:00.184Z,12.20
2017-10-20T05:49:04.141Z,12.30
2017-10-20T05:54:07.313Z,12.30
2017-10-20T05:59:11.262Z,12.40
2017-10-20T06:04:14.456Z,12.40
2017-10-20T06:09:18.397Z,12.40
2017-10-20T06:14:21.585Z,12.40
2017-10-20T06:19:25.547Z,12.50
2017-10-20T06:24:28.746Z,12.50
2017-10-20T06:29:31.916Z,12.60
2017-10-20T06:34:35.866Z,12.60
2017-10-20T06:39:39.057Z,12.60
2017-10-20T06:44:42.397Z,12.80
2017-10-20T06:49:45.577Z,12.90
2017-10-20T06:54:48.777Z,12.80
2017-10-20T06:59:52.754Z,12.80
2017-10-20T07:04:55.926Z,12.80
2017-10-20T07:09:59.130Z,12.90
2017-10-20T07:15:02.298Z,13.00
2017-10-20T07:20:20.293Z,13.00
2017-10-20T07:25:23.490Z,12.90
2017-10-20T07:30:26.666Z,12.80
2017-10-20T07:35:30.614Z,12.80
2017-10-20T07:40:33.834Z,12.80
2017-10-20T07:45:37.022Z,12.90
2017-10-20T07:50:40.986Z,13.20
2017-10-20T07:55:44.164Z,13.10
2017-10-20T08:00:47.374Z,13.30
2017-10-20T08:05:50.573Z,13.50
2017-10-20T08:10:53.826Z,13.30
2017-10-20T08:15:57.023Z,13.40
2017-10-20T08:21:00.214Z,13.50
2017-10-20T08:26:03.420Z,13.50
2017-10-20T08:31:06.621Z,13.60
2017-10-20T08:36:09.806Z,13.70
2017-10-20T08:41:13.774Z,13.60
2017-10-20T08:46:16.968Z,13.60
2017-10-20T08:51:20.181Z,13.60
2017-10-20T08:56:23.375Z,13.80
2017-10-20T09:01:26.564Z,13.80
2017-10-20T09:06:29.781Z,13.80
2017-10-20T09:11:32.977Z,13.90
2017-10-20T09:16:36.177Z,14.20
2017-10-20T09:21:40.166Z,14.40
2017-10-20T09:26:43.394Z,14.30
2017-10-20T09:31:46.606Z,14.40
2017-10-20T09:36:50.587Z,14.40
2017-10-20T09:41:53.871Z,14.40
2017-10-20T09:46:57.858Z,15.10
2017-10-20T09:52:01.022Z,15.20
2017-10-20T09:57:04.598Z,15.30
2017-10-20T10:02:08.550Z,15.80
2017-10-20T10:07:11.729Z,15.80
2017-10-20T10:12:14.946Z,16.40
2017-10-20T10:17:18.135Z,16.90
2017-10-20T10:22:22.107Z,16.70
2017-10-20T10:27:25.290Z,16.70
2017-10-20T10:32:28.559Z,16.60
2017-10-20T10:37:32.510Z,16.90
2017-10-20T10:42:35.721Z,16.80
2017-10-20T10:47:38.933Z,17.00
2017-10-20T10:52:42.246Z,17.00
2017-10-20T10:57:45.467Z,17.00
2017-10-20T11:02:48.694Z,17.10
2017-10-20T11:08:09.885Z,17.20
2017-10-20T11:13:14.990Z,16.80
2017-10-20T11:18:18.185Z,16.40
2017-10-20T11:23:21.564Z,16.20
2017-10-20T11:28:25.594Z,16.10
2017-10-20T11:33:28.798Z,16.00
2017-10-20T11:38:31.982Z,16.10
2017-10-20T11:43:35.177Z,16.40
2017-10-20T11:48:39.146Z,16.00
2017-10-20T11:53:42.303Z,16.00
2017-10-20T11:58:46.254Z,15.50
2017-10-20T12:03:49.447Z,15.40
2017-10-20T12:08:52.680Z,15.30
2017-10-20T12:13:55.873Z,14.30
2017-10-20T12:18:59.260Z,13.80
2017-10-20T12:24:03.217Z,14.00
2017-10-20T12:29:06.401Z,13.90
2017-10-20T12:34:09.630Z,13.80
2017-10-20T12:39:13.861Z,14.10
2017-10-20T12:44:17.086Z,14.00
2017-10-20T12:49:20.297Z,14.30
2017-10-20T12:54:23.483Z,14.40
2017-10-20T12:59:26.666Z,14.30
2017-10-20T13:04:29.835Z,14.60
2017-10-20T13:09:33.081Z,14.60
2017-10-20T13:14:36.279Z,14.60
2017-10-20T13:19:40.250Z,14.80
2017-10-20T13:24:43.438Z,14.80
2017-10-20T13:29:46.641Z,14.80
2017-10-20T13:34:49.843Z,14.60
2017-10-20T13:39:53.177Z,15.10
2017-10-20T13:44:56.446Z,15.30
2017-10-20T13:49:59.699Z,15.40
2017-10-20T13:55:02.862Z,15.40
2017-10-20T14:00:06.094Z,15.30
2017-10-20T14:05:09.307Z,15.30
2017-10-20T14:10:14.748Z,15.40
2017-10-20T14:15:17.976Z,15.40
2017-10-20T14:20:21.171Z,15.50
2017-10-20T14:25:24.402Z,15.50
2017-10-20T14:30:27.599Z,15.60
2017-10-20T14:35:30.806Z,15.50
2017-10-20T14:40:34.026Z,15.50
2017-10-20T14:45:37.225Z,15.50
2017-10-20T14:50:40.573Z,15.40
2017-10-20T14:55:44.585Z,15.40
2017-10-20T15:00:47.784Z,15.40
2017-10-20T15:05:51.041Z,15.40
2017-10-20T15:10:54.253Z,15.50
2017-10-20T15:15:57.479Z,15.50
2017-10-20T15:21:01.495Z,15.40
2017-10-20T15:26:04.676Z,15.30
2017-10-20T15:31:07.877Z,15.10
2017-10-20T15:36:11.997Z,14.90
2017-10-20T15:41:15.201Z,14.90
2017-10-20T15:46:18.438Z,14.80
2017-10-20T15:51:21.695Z,14.80
2017-10-20T15:56:25.690Z,14.60
2017-10-20T16:01:28.957Z,14.60
2017-10-20T16:06:32.173Z,14.40
2017-10-20T16:11:35.403Z,14.30
2017-10-20T16:16:38.623Z,14.30
2017-10-20T16:21:41.841Z,14.20
2017-10-20T16:26:45.042Z,14.10
2017-10-20T16:31:48.237Z,13.90
2017-10-20T16:36:51.430Z,13.70
2017-10-20T16:41:54.602Z,13.50
2017-10-20T16:46:57.793Z,13.40
2017-10-20T16:52:01.787Z,13.20
2017-10-20T16:57:05.093Z,13.20
2017-10-20T17:02:08.278Z,13.10
2017-10-20T17:07:11.455Z,13.00
2017-10-20T17:12:14.628Z,12.90
2017-10-20T17:17:17.821Z,12.80
2017-10-20T17:22:21.008Z,12.80
2017-10-20T17:27:24.257Z,12.70
2017-10-20T17:32:28.226Z,12.60
2017-10-20T17:37:31.447Z,12.60
2017-10-20T17:42:34.656Z,12.50
2017-10-20T17:47:37.866Z,12.40
2017-10-20T17:52:41.082Z,12.50
2017-10-20T17:57:44.293Z,12.50
2017-10-20T18:02:47.498Z,12.30
2017-10-20T18:07:50.673Z,12.30
2017-10-20T18:12:53.901Z,12.20
2017-10-20T18:17:57.098Z,12.00
2017-10-20T18:23:00.309Z,11.70
2017-10-20T18:28:03.540Z,11.50
2017-10-20T18:33:06.755Z,11.30
2017-10-20T18:38:09.990Z,11.40
2017-10-20T18:43:14.114Z,11.10
2017-10-20T18:48:18.067Z,11.00
2017-10-20T18:53:21.265Z,11.00
2017-10-20T18:58:24.477Z,10.90
2017-10-20T19:03:27.678Z,10.80
2017-10-20T19:08:30.896Z,10.70
2017-10-20T19:13:34.103Z,10.60
2017-10-20T19:18:37.313Z,10.50
2017-10-20T19:23:40.478Z,10.60
2017-10-20T19:28:44.434Z,10.50
2017-10-20T19:33:47.678Z,10.40
2017-10-20T19:38:50.904Z,10.50
2017-10-20T19:43:54.108Z,10.40
2017-10-20T19:48:57.312Z,10.40
2017-10-20T19:54:00.565Z,10.10
2017-10-20T19:59:03.739Z,9.90
2017-10-20T20:04:07.722Z,9.60
2017-10-20T20:09:10.915Z,9.50
2017-10-20T20:14:14.157Z,9.50
2017-10-20T20:19:17.340Z,9.40
2017-10-20T20:24:20.517Z,9.40
2017-10-20T20:29:23.695Z,9.30
2017-10-20T20:34:27.699Z,9.20
2017-10-20T20:39:30.897Z,9.20
2017-10-20T20:44:34.102Z,9.20
2017-10-20T20:49:37.306Z,9.30
2017-10-20T20:54:40.511Z,9.00
2017-10-20T20:59:43.723Z,8.80
2017-10-20T21:04:47.033Z,9.10
2017-10-20T21:09:50.226Z,9.10
2017-10-20T21:14:53.433Z,9.10
2017-10-20T21:19:56.633Z,8.90
2017-10-20T21:24:59.958Z,8.60
2017-10-20T21:30:03.167Z,8.80
2017-10-20T21:35:06.386Z,9.00
2017-10-20T21:40:09.582Z,8.90
2017-10-20T21:45:12.777Z,8.70
2017-10-20T21:50:15.973Z,8.80
2017-10-20T21:55:19.166Z,8.60
2017-10-20T22:00:22.376Z,8.60
2017-10-20T22:05:25.557Z,8.40
2017-10-20T22:10:28.802Z,8.30
2017-10-20T22:15:31.996Z,8.30
2017-10-20T22:20:35.200Z,8.50
2017-10-20T22:25:38.371Z,8.40
2017-10-20T22:30:42.466Z,8.10
2017-10-20T22:35:45.673Z,8.10
2017-10-20T22:40:48.844Z,8.20
2017-10-20T22:45:52.054Z,8.00
2017-10-20T22:50:55.235Z,7.90
2017-10-20T22:55:59.260Z,8.00
2017-10-20T23:01:03.195Z,7.90
2017-10-20T23:06:06.430Z,7.90
2017-10-20T23:11:09.622Z,8.00
2017-10-20T23:16:12.827Z,7.90
2017-10-20T23:21:16.030Z,8.10
2017-10-20T23:26:19.294Z,8.10
2017-10-20T23:31:22.479Z,8.00
2017-10-20T23:36:25.695Z,8.00
2017-10-20T23:41:28.882Z,7.80
2017-10-20T23:46:32.064Z,7.90
2017-10-20T23:51:35.253Z,8.20
2017-10-20T23:56:38.470Z,8.40
